createdAt,value
2022-11-15T00:00:46.749Z,19.50
2022-11-15T00:03:23.483Z,18.00
2022-11-15T00:05:49.707Z,24.33
2022-11-15T00:08:15.801Z,21.63
2022-11-15T00:10:42.237Z,20.40
2022-11-15T00:13:11.218Z,19.98
2022-11-15T00:15:41.182Z,19.85
2022-11-15T00:18:12.876Z,19.20
2022-11-15T00:20:38.771Z,18.23
2022-11-15T00:23:04.877Z,19.33
2022-11-15T00:25:31.037Z,15.77
2022-11-15T00:27:58.189Z,23.55
2022-11-15T00:30:24.291Z,20.45
2022-11-15T00:32:50.327Z,18.98
2022-11-15T00:35:16.076Z,20.00
2022-11-15T00:37:41.911Z,21.65
2022-11-15T00:40:08.848Z,20.92
2022-11-15T00:42:34.617Z,24.83
2022-11-15T00:45:00.386Z,26.65
2022-11-15T00:47:26.153Z,20.48
2022-11-15T00:49:51.911Z,19.10
2022-11-15T00:52:17.676Z,19.95
2022-11-15T00:54:43.444Z,23.25
2022-11-15T00:57:09.341Z,19.52
2022-11-15T00:59:35.131Z,23.95
2022-11-15T01:02:01.403Z,20.65
2022-11-15T01:04:27.406Z,19.75
2022-11-15T01:06:53.983Z,17.35
2022-11-15T01:09:19.943Z,18.80
2022-11-15T01:11:45.842Z,16.08
2022-11-15T01:14:11.607Z,19.52
2022-11-15T01:16:37.348Z,18.92
2022-11-15T01:19:03.532Z,17.25
2022-11-15T01:21:29.443Z,17.27
2022-11-15T01:23:56.344Z,15.95
2022-11-15T01:26:24.099Z,17.55
2022-11-15T01:28:50.568Z,19.08
2022-11-15T01:31:18.922Z,15.93
2022-11-15T01:33:44.876Z,16.08
2022-11-15T01:36:17.023Z,17.25
2022-11-15T01:38:42.848Z,19.83
2022-11-15T01:41:20.129Z,17.20
2022-11-15T01:43:49.543Z,14.80
2022-11-15T01:46:15.216Z,16.42
2022-11-15T01:48:41.017Z,14.88
2022-11-15T01:51:11.738Z,14.70
2022-11-15T01:53:40.102Z,20.50
2022-11-15T01:56:09.866Z,20.15
2022-11-15T01:58:36.162Z,16.50
2022-11-15T02:01:02.031Z,18.90
2022-11-15T02:03:40.456Z,16.13
2022-11-15T02:06:06.284Z,15.40
2022-11-15T02:08:31.992Z,17.02
2022-11-15T02:10:57.732Z,15.73
2022-11-15T02:13:23.720Z,13.35
2022-11-15T02:15:57.982Z,18.23
2022-11-15T02:18:35.022Z,15.85
2022-11-15T02:21:22.692Z,17.17
2022-11-15T02:24:03.437Z,16.05
2022-11-15T02:26:47.909Z,13.82
2022-11-15T02:29:22.515Z,16.50
2022-11-15T02:32:01.125Z,13.00
2022-11-15T02:34:38.358Z,11.80
2022-11-15T02:37:15.786Z,11.60
2022-11-15T02:39:50.971Z,12.40
2022-11-15T02:42:43.580Z,11.63
2022-11-15T02:45:13.618Z,12.70
2022-11-15T02:47:44.011Z,13.90
2022-11-15T02:50:16.047Z,12.27
2022-11-15T02:52:45.518Z,10.27
2022-11-15T02:55:33.055Z,13.55
2022-11-15T02:58:15.286Z,11.85
2022-11-15T03:01:09.493Z,11.38
2022-11-15T03:03:50.566Z,13.23
2022-11-15T03:06:28.099Z,10.40
2022-11-15T03:09:11.438Z,11.50
2022-11-15T03:11:48.422Z,11.40
2022-11-15T03:14:29.369Z,11.48
2022-11-15T03:17:21.033Z,12.02
2022-11-15T03:20:06.121Z,11.77
2022-11-15T03:22:37.886Z,10.63
2022-11-15T03:25:08.819Z,14.05
2022-11-15T03:27:42.110Z,11.00
2022-11-15T03:30:09.471Z,10.85
2022-11-15T03:32:40.507Z,11.80
2022-11-15T03:35:10.608Z,12.07
2022-11-15T03:38:01.338Z,11.68
2022-11-15T03:40:42.120Z,12.15
2022-11-15T03:43:16.495Z,12.80
2022-11-15T03:45:56.154Z,13.13
2022-11-15T03:48:26.716Z,11.80
2022-11-15T03:50:52.742Z,11.82
2022-11-15T03:53:18.556Z,12.48
2022-11-15T03:55:44.302Z,12.05
2022-11-15T03:58:10.188Z,11.27
2022-11-15T04:00:36.055Z,10.98
2022-11-15T04:03:02.041Z,11.07
2022-11-15T04:05:27.840Z,12.75
2022-11-15T04:07:53.571Z,11.43
2022-11-15T04:10:19.871Z,10.25
2022-11-15T04:12:49.347Z,12.05
2022-11-15T04:15:18.008Z,11.38
2022-11-15T04:17:49.595Z,15.38
2022-11-15T04:20:41.360Z,12.10
2022-11-15T04:23:28.924Z,12.95
2022-11-15T04:25:56.628Z,10.27
2022-11-15T04:28:22.998Z,9.77
2022-11-15T04:30:48.721Z,10.60
2022-11-15T04:33:15.006Z,10.80
2022-11-15T04:35:40.890Z,9.88
2022-11-15T04:38:09.171Z,8.10
2022-11-15T04:40:36.834Z,8.27
2022-11-15T04:43:04.180Z,7.88
2022-11-15T04:45:30.454Z,8.45
2022-11-15T04:47:56.262Z,8.07
2022-11-15T04:50:22.020Z,8.75
2022-11-15T04:52:52.991Z,8.98
2022-11-15T04:55:19.072Z,9.00
2022-11-15T04:57:44.851Z,10.02
2022-11-15T05:00:13.876Z,11.50
2022-11-15T05:02:58.241Z,10.85
2022-11-15T05:05:24.671Z,9.40
2022-11-15T05:07:50.690Z,9.65
2022-11-15T05:10:16.964Z,11.77
2022-11-15T05:12:42.914Z,10.85
2022-11-15T05:15:09.249Z,12.57
2022-11-15T05:17:34.975Z,12.93
2022-11-15T05:20:00.744Z,18.33
2022-11-15T05:22:27.824Z,10.90
2022-11-15T05:24:53.710Z,12.23
2022-11-15T05:27:19.518Z,11.18
2022-11-15T05:29:45.284Z,11.13
2022-11-15T05:32:12.092Z,13.90
2022-11-15T05:34:37.900Z,10.40
2022-11-15T05:37:03.693Z,11.52
2022-11-15T05:39:29.479Z,10.40
2022-11-15T05:42:04.594Z,11.38
2022-11-15T05:44:31.485Z,11.98
2022-11-15T05:46:57.593Z,8.20
2022-11-15T05:49:26.941Z,8.77
2022-11-15T05:51:54.200Z,7.38
2022-11-15T05:54:22.164Z,7.78
2022-11-15T05:56:49.150Z,6.75
2022-11-15T05:59:15.078Z,6.20
2022-11-15T06:01:41.222Z,5.97
2022-11-15T06:04:07.145Z,6.50
2022-11-15T06:06:32.908Z,6.07
2022-11-15T06:08:58.684Z,5.55
2022-11-15T06:11:24.484Z,5.72
2022-11-15T06:13:50.301Z,4.85
2022-11-15T06:16:16.136Z,6.90
2022-11-15T06:18:41.998Z,6.40
2022-11-15T06:21:07.772Z,5.40
2022-11-15T06:23:34.970Z,6.15
2022-11-15T06:26:02.266Z,7.85
2022-11-15T06:28:32.450Z,6.88
2022-11-15T06:31:09.690Z,4.65
2022-11-15T06:33:35.566Z,5.45
2022-11-15T06:36:06.312Z,5.32
2022-11-15T06:38:32.223Z,4.38
2022-11-15T06:41:06.142Z,5.88
2022-11-15T06:43:32.871Z,5.97
2022-11-15T06:46:00.301Z,4.47
2022-11-15T06:48:26.930Z,4.18
2022-11-15T06:50:54.015Z,8.35
2022-11-15T06:53:20.082Z,4.25
2022-11-15T06:55:45.895Z,4.65
2022-11-15T06:58:11.716Z,4.53
2022-11-15T07:00:37.570Z,4.28
2022-11-15T07:03:03.638Z,4.15
2022-11-15T07:05:29.778Z,5.30
2022-11-15T07:07:57.633Z,6.18
2022-11-15T07:10:25.451Z,4.40
2022-11-15T07:12:52.167Z,4.65
2022-11-15T07:15:19.617Z,5.65
2022-11-15T07:17:45.622Z,3.15
2022-11-15T07:20:13.546Z,3.08
2022-11-15T07:22:40.339Z,3.13
2022-11-15T07:25:06.865Z,4.15
2022-11-15T07:27:33.191Z,4.43
2022-11-15T07:29:59.402Z,3.58
2022-11-15T07:32:25.737Z,4.40
2022-11-15T07:34:51.518Z,2.40
2022-11-15T07:37:17.264Z,3.03
2022-11-15T07:39:43.567Z,2.40
2022-11-15T07:42:28.504Z,2.92
2022-11-15T07:44:54.335Z,4.30
2022-11-15T07:47:20.774Z,2.47
2022-11-15T07:49:47.070Z,2.00
2022-11-15T07:52:13.863Z,3.67
2022-11-15T07:54:40.110Z,2.58
2022-11-15T07:57:07.973Z,3.67
2022-11-15T07:59:35.208Z,2.17
2022-11-15T08:02:01.925Z,2.10
2022-11-15T08:04:27.779Z,4.32
2022-11-15T08:06:53.630Z,2.95
2022-11-15T08:09:19.385Z,3.10
2022-11-15T08:11:45.162Z,4.03
2022-11-15T08:14:11.017Z,2.72
2022-11-15T08:16:36.845Z,3.33
2022-11-15T08:19:02.716Z,5.40
2022-11-15T08:21:28.596Z,3.08
2022-11-15T08:23:54.440Z,4.05
2022-11-15T08:26:20.276Z,2.40
2022-11-15T08:28:46.085Z,2.85
2022-11-15T08:31:21.030Z,2.95
2022-11-15T08:33:46.828Z,4.07
2022-11-15T08:36:15.715Z,3.28
2022-11-15T08:38:41.778Z,2.40
2022-11-15T08:41:12.737Z,3.13
2022-11-15T08:43:38.541Z,3.88
2022-11-15T08:46:04.335Z,3.63
2022-11-15T08:48:30.463Z,3.97
2022-11-15T08:50:57.368Z,4.97
2022-11-15T08:53:23.341Z,6.47
2022-11-15T08:55:49.096Z,3.10
2022-11-15T08:58:14.923Z,3.80
2022-11-15T09:00:40.800Z,2.45
2022-11-15T09:03:07.465Z,3.35
2022-11-15T09:05:36.341Z,3.05
2022-11-15T09:08:13.930Z,3.58
2022-11-15T09:10:47.992Z,5.10
2022-11-15T09:13:14.182Z,3.88
2022-11-15T09:15:40.072Z,4.38
2022-11-15T09:18:05.892Z,2.78
2022-11-15T09:20:31.847Z,3.25
2022-11-15T09:23:01.307Z,2.25
2022-11-15T09:25:27.820Z,2.10
2022-11-15T09:27:53.862Z,3.35
2022-11-15T09:30:19.703Z,5.00
2022-11-15T09:32:45.481Z,4.93
2022-11-15T09:35:11.291Z,3.17
2022-11-15T09:37:37.886Z,3.72
2022-11-15T09:40:04.242Z,2.42
2022-11-15T09:42:56.237Z,5.25
2022-11-15T09:45:21.969Z,2.95
2022-11-15T09:48:00.095Z,3.67
2022-11-15T09:50:51.882Z,2.60
2022-11-15T09:53:50.810Z,6.15
2022-11-15T09:56:22.300Z,2.80
2022-11-15T09:59:03.284Z,1.58
2022-11-15T10:01:44.281Z,3.40
2022-11-15T10:04:11.943Z,3.85
2022-11-15T10:06:47.554Z,2.05
2022-11-15T10:16:44.662Z,3.53
2022-11-15T10:19:52.543Z,2.80
2022-11-15T10:22:36.331Z,2.13
2022-11-15T10:25:22.273Z,3.30
2022-11-15T10:27:54.850Z,1.38
2022-11-15T10:30:21.225Z,3.67
2022-11-15T10:32:48.192Z,2.95
2022-11-15T10:35:18.263Z,1.38
2022-11-15T10:37:44.035Z,1.85
2022-11-15T10:40:24.236Z,1.27
2022-11-15T10:43:12.924Z,2.15
2022-11-15T10:45:38.774Z,5.53
2022-11-15T10:48:13.379Z,2.40
2022-11-15T10:50:44.663Z,6.05
2022-11-15T10:53:42.189Z,2.08
2022-11-15T10:56:15.999Z,3.35
2022-11-15T10:58:44.438Z,2.75
2022-11-15T11:01:13.292Z,3.25
2022-11-15T11:03:41.093Z,1.33
2022-11-15T11:06:13.180Z,1.73
2022-11-15T11:08:39.603Z,2.22
2022-11-15T11:11:07.265Z,3.05
2022-11-15T11:13:38.241Z,2.03
2022-11-15T11:16:33.904Z,1.45
2022-11-15T11:19:18.849Z,1.10
2022-11-15T11:22:12.614Z,1.77
2022-11-15T11:24:53.450Z,2.40
2022-11-15T11:27:43.795Z,1.80
2022-11-15T11:30:16.525Z,1.63
2022-11-15T11:32:55.552Z,4.28
2022-11-15T11:35:25.050Z,1.95
2022-11-15T11:38:11.283Z,1.77
2022-11-15T11:40:45.563Z,0.98
2022-11-15T11:43:14.019Z,1.57
2022-11-15T11:45:56.444Z,1.30
2022-11-15T11:48:45.310Z,2.47
2022-11-15T11:51:23.634Z,1.48
2022-11-15T11:53:57.567Z,2.15
2022-11-15T11:56:29.458Z,2.17
2022-11-15T11:59:02.587Z,3.72
2022-11-15T12:01:54.998Z,1.60
2022-11-15T12:04:23.863Z,2.85
2022-11-15T12:06:59.143Z,1.52
2022-11-15T12:09:33.935Z,2.90
2022-11-15T12:12:19.754Z,2.13
2022-11-15T12:15:00.463Z,2.35
2022-11-15T12:17:32.355Z,1.65
2022-11-15T12:20:00.634Z,1.85
2022-11-15T12:22:55.630Z,1.85
2022-11-15T12:25:26.303Z,1.85
2022-11-15T12:28:08.782Z,2.47
2022-11-15T12:30:49.136Z,3.03
2022-11-15T12:33:46.834Z,2.22
2022-11-15T12:36:21.378Z,1.90
2022-11-15T12:38:53.233Z,3.60
2022-11-15T12:41:20.226Z,3.63
2022-11-15T12:43:48.002Z,2.30
2022-11-15T12:46:42.986Z,2.38
2022-11-15T12:49:37.109Z,2.35
2022-11-15T12:52:03.753Z,2.38
2022-11-15T12:54:32.565Z,1.40
2022-11-15T12:57:04.558Z,2.85
2022-11-15T12:59:48.574Z,1.92
2022-11-15T13:02:43.836Z,4.45
2022-11-15T13:05:18.720Z,4.47
2022-11-15T13:07:44.753Z,1.80
2022-11-15T13:10:10.498Z,3.47
2022-11-15T13:12:41.173Z,4.50
2022-11-15T13:15:12.726Z,6.00
2022-11-15T13:17:42.565Z,2.75
2022-11-15T13:20:08.279Z,2.50
2022-11-15T13:22:51.484Z,3.58
2022-11-15T13:25:19.852Z,5.57
2022-11-15T13:27:50.692Z,2.10
2022-11-15T13:30:22.761Z,4.32
2022-11-15T13:32:49.153Z,4.38
2022-11-15T13:35:26.936Z,1.77
2022-11-15T13:37:54.682Z,2.50
2022-11-15T13:40:30.655Z,4.10
2022-11-15T13:42:58.046Z,5.30
2022-11-15T13:45:24.575Z,4.85
2022-11-15T13:47:56.502Z,4.45
2022-11-15T13:50:27.702Z,4.90
2022-11-15T13:52:57.413Z,4.38
2022-11-15T13:55:24.526Z,2.05
2022-11-15T13:58:00.362Z,2.13
2022-11-15T14:00:43.579Z,4.90
2022-11-15T14:03:14.435Z,3.03
2022-11-15T14:05:40.839Z,1.70
2022-11-15T14:08:24.004Z,3.00
2022-11-15T14:11:25.949Z,2.35
2022-11-15T14:14:09.852Z,3.30
2022-11-15T14:16:41.946Z,4.45
2022-11-15T14:19:12.641Z,2.35
2022-11-15T14:22:16.631Z,3.38
2022-11-15T14:24:47.325Z,4.95
2022-11-15T14:27:27.137Z,1.80
2022-11-15T14:29:53.315Z,2.33
2022-11-15T14:32:22.376Z,5.70
2022-11-15T14:34:59.352Z,5.70
2022-11-15T14:37:26.688Z,3.40
2022-11-15T14:39:53.731Z,2.55
2022-11-15T14:42:20.460Z,3.13
2022-11-15T14:44:46.672Z,4.05
2022-11-15T14:47:13.020Z,1.35
2022-11-15T14:49:38.892Z,1.98
2022-11-15T14:52:31.532Z,3.95
2022-11-15T14:54:59.440Z,4.15
2022-11-15T14:57:25.817Z,3.65
2022-11-15T14:59:52.133Z,5.25
2022-11-15T15:02:23.547Z,3.70
2022-11-15T15:04:50.242Z,4.32
2022-11-15T15:07:16.712Z,2.92
2022-11-15T15:09:43.096Z,4.63
2022-11-15T15:12:17.887Z,4.03
2022-11-15T15:14:44.407Z,2.42
2022-11-15T15:17:10.411Z,2.10
2022-11-15T15:19:36.464Z,3.90
2022-11-15T15:22:02.638Z,4.70
2022-11-15T15:24:28.444Z,2.33
2022-11-15T15:26:54.254Z,2.55
2022-11-15T15:29:20.047Z,1.88
2022-11-15T15:31:45.858Z,3.03
2022-11-15T15:34:16.621Z,3.53
2022-11-15T15:36:42.874Z,2.05
2022-11-15T15:39:11.538Z,6.45
2022-11-15T15:41:37.322Z,2.33
2022-11-15T15:44:03.181Z,2.95
2022-11-15T15:46:28.997Z,4.20
2022-11-15T15:48:54.871Z,2.25
2022-11-15T15:51:21.133Z,2.42
2022-11-15T15:53:48.016Z,2.03
2022-11-15T15:56:13.893Z,5.00
2022-11-15T15:58:39.668Z,2.00
2022-11-15T16:01:05.921Z,3.22
2022-11-15T16:03:31.798Z,1.73
2022-11-15T16:05:58.546Z,2.50
2022-11-15T16:08:26.779Z,2.92
2022-11-15T16:10:52.703Z,4.07
2022-11-15T16:13:18.616Z,2.10
2022-11-15T16:15:47.872Z,4.57
2022-11-15T16:18:16.757Z,2.70
2022-11-15T16:20:45.786Z,1.77
2022-11-15T16:23:17.415Z,2.92
2022-11-15T16:25:53.215Z,2.70
2022-11-15T16:28:24.314Z,2.53
2022-11-15T16:31:09.538Z,1.92
2022-11-15T16:33:35.862Z,2.90
2022-11-15T16:36:03.621Z,2.83
2022-11-15T16:38:29.644Z,1.67
2022-11-15T16:40:55.738Z,2.47
2022-11-15T16:43:21.584Z,2.40
2022-11-15T16:45:49.348Z,2.83
2022-11-15T16:48:27.324Z,2.85
2022-11-15T16:50:57.740Z,2.03
2022-11-15T16:53:24.762Z,1.67
2022-11-15T16:55:50.541Z,2.95
2022-11-15T16:58:16.364Z,1.92
2022-11-15T17:00:42.232Z,2.17
2022-11-15T17:03:08.167Z,2.30
2022-11-15T17:05:33.997Z,2.05
2022-11-15T17:07:59.864Z,1.75
2022-11-15T17:10:26.482Z,3.05
2022-11-15T17:12:54.461Z,2.42
2022-11-15T17:15:20.820Z,4.75
2022-11-15T17:17:53.871Z,2.03
2022-11-15T17:20:23.015Z,2.55
2022-11-15T17:22:48.862Z,2.35
2022-11-15T17:25:14.840Z,3.25
2022-11-15T17:27:40.933Z,1.67
2022-11-15T17:30:07.713Z,6.13
2022-11-15T17:32:37.121Z,2.78
2022-11-15T17:35:03.912Z,2.55
2022-11-15T17:37:29.816Z,2.20
2022-11-15T17:39:55.569Z,3.80
2022-11-15T17:42:21.436Z,5.65
2022-11-15T17:44:47.202Z,3.65
2022-11-15T17:47:13.014Z,5.60
2022-11-15T17:49:40.051Z,2.70
2022-11-15T17:52:06.523Z,4.18
2022-11-15T17:54:32.559Z,3.08
2022-11-15T17:56:58.370Z,3.38
2022-11-15T17:59:24.175Z,4.03
2022-11-15T18:01:50.067Z,4.38
2022-11-15T18:04:15.813Z,3.38
2022-11-15T18:06:42.220Z,3.33
2022-11-15T18:09:08.243Z,6.10
2022-11-15T18:11:40.329Z,4.53
2022-11-15T18:14:15.512Z,4.85
2022-11-15T18:16:41.808Z,4.28
2022-11-15T18:19:13.188Z,4.20
2022-11-15T18:21:56.956Z,5.50
2022-11-15T18:24:29.367Z,5.10
2022-11-15T18:26:56.107Z,5.70
2022-11-15T18:29:23.850Z,4.68
2022-11-15T18:31:54.236Z,3.90
2022-11-15T18:34:21.829Z,6.40
2022-11-15T18:36:50.750Z,7.32
2022-11-15T18:39:16.623Z,4.55
2022-11-15T18:41:44.091Z,4.18
2022-11-15T18:44:10.026Z,3.60
2022-11-15T18:46:35.949Z,3.30
2022-11-15T18:49:02.182Z,4.55
2022-11-15T18:51:31.698Z,3.33
2022-11-15T18:54:00.931Z,4.47
2022-11-15T18:56:29.157Z,4.43
2022-11-15T18:58:57.286Z,11.50
2022-11-15T19:01:25.780Z,8.68
2022-11-15T19:03:53.935Z,6.78
2022-11-15T19:06:28.866Z,4.55
2022-11-15T19:08:57.299Z,5.25
2022-11-15T19:11:27.374Z,4.45
2022-11-15T19:14:04.697Z,4.45
2022-11-15T19:16:33.447Z,6.75
2022-11-15T19:19:04.890Z,6.85
2022-11-15T19:21:31.325Z,6.20
2022-11-15T19:23:58.294Z,4.13
2022-11-15T19:26:24.929Z,8.88
2022-11-15T19:28:52.769Z,4.97
2022-11-15T19:31:19.741Z,6.90
2022-11-15T19:33:45.871Z,4.65
2022-11-15T19:36:14.539Z,4.53
2022-11-15T19:38:40.951Z,4.25
2022-11-15T19:41:10.167Z,5.63
2022-11-15T19:43:36.373Z,5.25
2022-11-15T19:46:05.518Z,3.88
2022-11-15T19:48:33.637Z,5.32
2022-11-15T19:51:08.830Z,6.18
2022-11-15T19:53:35.780Z,3.72
2022-11-15T19:56:04.060Z,3.58
2022-11-15T19:58:30.841Z,5.38
2022-11-15T20:01:06.417Z,4.25
2022-11-15T20:03:34.253Z,7.45
2022-11-15T20:06:09.882Z,3.83
2022-11-15T20:08:36.522Z,6.45
2022-11-15T20:11:04.498Z,6.43
2022-11-15T20:13:31.068Z,8.07
2022-11-15T20:15:57.485Z,3.90
2022-11-15T20:18:24.929Z,5.35
2022-11-15T20:20:51.226Z,6.15
2022-11-15T20:23:17.765Z,4.82
2022-11-15T20:25:45.697Z,4.72
2022-11-15T20:28:16.824Z,4.30
2022-11-15T20:30:44.522Z,6.43
2022-11-15T20:33:11.378Z,5.05
2022-11-15T20:35:37.276Z,5.38
2022-11-15T20:38:03.188Z,7.25
2022-11-15T20:40:28.981Z,6.07
2022-11-15T20:42:54.847Z,4.53
2022-11-15T20:45:20.672Z,6.22
2022-11-15T20:47:46.544Z,6.18
2022-11-15T20:50:40.569Z,4.80
2022-11-15T20:52:58.233Z,5.45
2022-11-15T20:55:24.631Z,6.97
2022-11-15T20:57:50.431Z,4.75
2022-11-15T21:00:21.639Z,9.43
2022-11-15T21:02:47.763Z,5.35
2022-11-15T21:05:13.740Z,4.50
2022-11-15T21:07:39.605Z,6.78
2022-11-15T21:10:24.040Z,3.92
2022-11-15T21:12:50.352Z,8.48
2022-11-15T21:15:16.821Z,5.88
2022-11-15T21:17:42.720Z,4.72
2022-11-15T21:20:09.071Z,5.28
2022-11-15T21:22:34.911Z,6.25
2022-11-15T21:25:00.749Z,4.30
2022-11-15T21:27:27.215Z,4.80
2022-11-15T21:29:53.079Z,5.00
2022-11-15T21:32:19.011Z,5.38
2022-11-15T21:34:44.912Z,7.57
2022-11-15T21:37:10.836Z,6.35
2022-11-15T21:39:37.697Z,4.13
2022-11-15T21:42:03.884Z,6.45
2022-11-15T21:44:29.790Z,5.47
2022-11-15T21:46:55.526Z,4.70
2022-11-15T21:49:21.771Z,4.55
2022-11-15T21:51:48.175Z,4.88
2022-11-15T21:54:14.459Z,6.30
2022-11-15T21:56:42.452Z,5.68
2022-11-15T21:59:08.332Z,5.22
2022-11-15T22:01:52.345Z,6.05
2022-11-15T22:04:18.475Z,4.03
2022-11-15T22:06:44.438Z,5.25
2022-11-15T22:09:10.373Z,5.28
2022-11-15T22:11:36.287Z,4.35
2022-11-15T22:14:02.670Z,4.45
2022-11-15T22:16:28.612Z,5.63
2022-11-15T22:18:54.541Z,7.20
2022-11-15T22:21:20.741Z,5.57
2022-11-15T22:23:46.602Z,6.30
2022-11-15T22:26:19.415Z,4.80
2022-11-15T22:33:40.229Z,6.03
2022-11-15T22:36:07.146Z,5.35
2022-11-15T22:38:33.374Z,5.30
2022-11-15T22:40:59.736Z,5.63
2022-11-15T22:43:26.544Z,5.47
2022-11-15T22:45:54.577Z,6.20
2022-11-15T22:48:35.748Z,6.65
2022-11-15T22:51:03.681Z,6.40
2022-11-15T22:53:29.987Z,7.57
2022-11-15T22:55:58.010Z,5.57
2022-11-15T22:58:25.672Z,6.60
2022-11-15T23:00:53.702Z,5.78
2022-11-15T23:03:20.479Z,6.75
2022-11-15T23:05:47.337Z,6.15
2022-11-15T23:08:13.588Z,8.90
2022-11-15T23:10:58.534Z,8.10
2022-11-15T23:13:26.580Z,7.15
2022-11-15T23:16:19.981Z,7.72
2022-11-15T23:18:45.852Z,9.73
2022-11-15T23:21:13.017Z,6.90
2022-11-15T23:23:39.438Z,8.82
2022-11-15T23:26:05.695Z,6.43
2022-11-15T23:28:33.097Z,5.85
2022-11-15T23:31:25.327Z,7.80
2022-11-15T23:33:57.136Z,6.85
2022-11-15T23:36:24.657Z,10.40
2022-11-15T23:38:50.596Z,7.65
2022-11-15T23:41:17.082Z,8.15
2022-11-15T23:43:42.966Z,8.32
2022-11-15T23:46:08.823Z,5.88
2022-11-15T23:48:34.951Z,7.63
2022-11-15T23:51:01.036Z,7.78
2022-11-15T23:53:26.895Z,8.40
2022-11-15T23:56:10.281Z,6.45
2022-11-15T23:58:36.718Z,6.13
